• Join FlightAware (Why Join?)
  • Login
  • US Flag 
01:29AM EST


 

Airport Tracker/Info


-or-


 

Live Flight TrackerFlight Track Log ✈ RPA3253 ✈ 18-Dec-2013 ✈ KIND - KCLT

Flight Track Log - Related Links

Times and Time Zones

All times are in EST time to prevent confusion due to time zone crossing. See the RPA3253 flight status page for this flight to view local times or setup timezone preferences in your user account.

Time Position Orientation Groundspeed Altitude Reporting Facility
EST Latitude Longitude Course Direction KTS MPH feet Rate Location/Type
08:08PM 39.7000 -86.3000 218° Southwest 126 145 1,600  Level Indianapolis TRACON
08:08PM 39.6833 -86.3167 218° Southwest 129 148 3,200 1,980 Climbing Indianapolis TRACON
08:09PM 39.6667 -86.3500 237° Southwest 172 198 4,600 1,560 Climbing Indianapolis TRACON
08:10PM 39.6356 -86.3789 216° Southwest 189 217 5,700 2,400 Climbing Indianapolis Center
08:11PM 39.5528 -86.3767 179° South 249 287 8,700 2,400 Climbing Indianapolis Center
08:12PM 39.4761 -86.3633 172° South 272 313 10,800 1,860 Climbing Indianapolis Center
08:13PM 39.3892 -86.3508 174° South 303 349 12,600 2,040 Climbing Indianapolis Center
08:14PM 39.2953 -86.3361 173° South 335 386 15,000 2,340 Climbing Indianapolis Center
08:15PM 39.1969 -86.3219 174° South 354 407 17,400 2,160 Climbing Indianapolis Center
08:16PM 39.0953 -86.3075 174° South 363 418 19,500 2,220 Climbing Indianapolis Center
08:17PM 38.9683 -86.2886 173° South 380 437 22,000 1,980 Climbing Indianapolis Center
08:18PM 38.8625 -86.2728 173° South 391 450 23,700 1,620 Climbing Indianapolis Center
08:19PM 38.7492 -86.2550 173° South 404 465 25,400 1,380 Climbing Indianapolis Center
08:20PM 38.6306 -86.2389 174° South 416 479 26,600 1,140 Climbing Indianapolis Center
08:21PM 38.5122 -86.1781 158° South 463 533 27,800 1,200 Climbing Indianapolis Center
08:22PM 38.4033 -86.0789 144° Southeast 473 544 29,100 1,140 Climbing Indianapolis Center
08:23PM 38.2919 -85.9761 144° Southeast 486 559 30,200 900 Climbing Indianapolis Center
08:24PM 38.1581 -85.8553 145° Southeast 488 562 31,000 360 Climbing Indianapolis Center
08:25PM 38.0458 -85.7542 145° Southeast 489 563 31,000  Level Indianapolis Center
08:26PM 37.9344 -85.6556 145° Southeast 486 559 31,000  Level Indianapolis Center
08:27PM 37.8272 -85.5589 145° Southeast 473 544 31,000  Level Indianapolis Center
08:28PM 37.7111 -85.4528 144° Southeast 468 539 31,000  Level Indianapolis Center
08:29PM 37.6036 -85.3575 145° Southeast 473 544 31,000  Level Indianapolis Center
08:30PM 37.4956 -85.2639 145° Southeast 471 542 31,000  Level Indianapolis Center
08:31PM 37.3881 -85.1700 145° Southeast 470 541 31,000  Level Indianapolis Center
08:33PM 37.2819 -85.0744 144° Southeast 468 539 31,000  Level Indianapolis Center
08:34PM 37.1567 -84.9653 145° Southeast 469 540 31,000  Level Indianapolis Center
08:35PM 37.0506 -84.8739 145° Southeast 465 535 31,000  Level Indianapolis Center
08:36PM 36.9428 -84.7803 145° Southeast 467 537 31,000  Level Indianapolis Center
08:37PM 36.8367 -84.6883 145° Southeast 464 534 31,000  Level Indianapolis Center
08:38PM 36.7300 -84.5967 145° Southeast 465 535 31,000  Level Indianapolis Center
08:39PM 36.6222 -84.5039 145° Southeast 467 537 31,000  Level Indianapolis Center
08:40PM 36.5000 -84.3986 145° Southeast 465 535 31,000  Level Indianapolis Center
08:41PM 36.4072 -84.3206 146° Southeast 468 539 31,000  Level Indianapolis Center
08:42PM 36.2781 -84.2094 145° Southeast 468 539 31,000  Level Indianapolis Center
08:43PM 36.1692 -84.1183 146° Southeast 468 539 31,000  Level Indianapolis Center
08:44PM 36.0667 -84.0336 146° Southeast 465 535 31,000 -360 Level Atlanta Center
08:45PM 35.9706 -83.9514 145° Southeast 465 535 30,300 -1,020 Descending Atlanta Center
08:46PM 35.9017 -83.8106 121° Southeast 465 535 29,000 -660 Descending Atlanta Center
08:47PM 35.8969 -83.6414 92° East 455 524 29,000  Level Atlanta Center
08:48PM 35.8942 -83.4722 91° East 471 542 29,000  Level Atlanta Center
08:49PM 35.8914 -83.3031 91° East 482 555 29,000  Level Atlanta Center
08:50PM 35.8983 -83.1211 87° East 483 556 29,000 -540 Level Atlanta Center
08:51PM 35.9347 -82.9667 74° East 470 541 28,000 -1,800 Descending Atlanta Center
08:52PM 35.9689 -82.8175 74° East 453 521 25,500 -1,920 Descending Atlanta Center
08:53PM 36.0028 -82.6783 73° East 430 495 24,200 -780 Descending Atlanta Center
08:54PM 36.0325 -82.5392 75° East 416 479 24,000 -720 Descending Atlanta Center
08:55PM 35.9953 -82.4014 108° East 406 467 22,800 -1,200 Descending Atlanta Center
08:56PM 35.9392 -82.2767 119° Southeast 407 468 21,700 -1,140 Descending Atlanta Center
08:57PM 35.9100 -82.1414 105° East 407 468 20,600 -1,140 Descending Atlanta Center
08:58PM 35.8767 -82.0092 107° East 407 468 19,500 -1,140 Descending Atlanta Center
08:59PM 35.8186 -81.9031 124° Southeast 372 428 18,400 -1,440 Descending Atlanta Center
09:00PM 35.7564 -81.8072 129° Southeast 372 428 16,700 -1,800 Descending Atlanta Center
09:01PM 35.6919 -81.7144 131° Southeast 367 422 14,900 -1,260 Descending Atlanta Center
09:02PM 35.6342 -81.6267 129° Southeast 351 404 14,200 -780 Descending Atlanta Center
09:02PM 35.5933 -81.5717 132° Southeast 293 337 13,600 -1,020 Descending Atlanta Center
09:03PM 35.5783 -81.5467 126° Southeast 290 334 13,200 -1,320 Descending Atlanta Center
09:03PM 35.5803 -81.5467 360° North 328 377 13,200 -240 Level Atlanta Center
09:04PM 35.5264 -81.4667 130° Southeast 292 336 13,000 -120 Descending Atlanta Center
09:05PM 35.4769 -81.3917 129° Southeast 299 344 13,000  Level Atlanta Center
09:05PM 35.4769 -81.3892 90° East 293 337 13,000  Level Atlanta Center
09:06PM 35.4253 -81.3142 130° Southeast 299 344 13,000  Level Atlanta Center
09:06PM 35.4253 -81.3142 130° Southeast 291 335 13,000  Level Atlanta Center
09:07PM 35.3733 -81.2369 130° Southeast 294 338 13,000  Level Atlanta Center
09:07PM 35.3733 -81.2369 130° Southeast 292 336 13,000 -540 Level Atlanta Center
09:08PM 35.3236 -81.1622 129° Southeast 294 338 12,500 -540 Descending Atlanta Center
09:08PM 35.3172 -81.1550 137° Southeast 289 333 12,500 -1,200 Level Atlanta Center
09:09PM 35.2761 -81.0953 130° Southeast 282 325 11,300 -1,380 Descending Atlanta Center
09:09PM 35.2717 -81.0878 126° Southeast 260 299 11,100 -1,920 Descending Atlanta Center
09:10PM 35.2128 -81.0697 166° South 245 282 9,400 -1,920 Descending Atlanta Center
09:10PM 35.2067 -81.0697 180° South 236 272 9,200 -1,440 Descending Atlanta Center
09:11PM 35.1481 -81.0617 174° South 237 273 8,000 -1,440 Descending Atlanta Center
09:11PM 35.1439 -81.0644 209° Southwest 236 272 7,800 -1,440 Descending Atlanta Center
09:12PM 35.0728 -81.0594 177° South 236 272 6,400 -1,260 Descending Atlanta Center
09:13PM 35.0103 -81.0567 178° South 226 260 5,300 -720 Descending Atlanta Center
09:14PM 34.9575 -81.0331 160° South 205 236 5,000 -180 Descending Atlanta Center
09:15PM 34.9750 -80.9792 68° East 183 211 5,000 -120 Level Atlanta Center
09:16PM 35.0222 -80.9547 23° Northeast 172 198 4,800 -900 Descending Atlanta Center
09:17PM 35.0725 -80.9553 359° North 179 206 3,300 -1,260 Descending Atlanta Center
09:18PM 35.1225 -80.9611 355° North 179 206 2,300 -900 Descending Atlanta Center
09:19PM 35.1622 -80.9647 356° North 143 165 1,500 -840 Descending Atlanta Center